Time;durP1;ratioP1;P1;durP2;ratioP2;P2;SDS_P1;SDS_P2;PMS_P1;PMS_P2;Temp;Humidity;BMP_temperature;BMP_pressure;BME280_temperature;BME280_humidity;BME280_pressure;Samples;Min_cycle;Max_cycle;Signal;HPM_P1;HPM_P2
2023/12/18 00:00:17;;;;;;;11.77;9.10;;;5.10;76.60;3.30;98225.00;;;;4956074;28;20290;-84
2023/12/18 00:02:45;;;;;;;12.23;8.97;;;5.10;76.70;3.40;98220.00;;;;4959418;28;20636;-84
2023/12/18 00:05:12;;;;;;;10.70;8.33;;;5.10;76.70;3.40;98220.00;;;;4962592;28;20301;-82
2023/12/18 00:07:40;;;;;;;11.90;9.40;;;5.10;76.80;3.40;98225.00;;;;4952541;28;20204;-84
2023/12/18 00:10:09;;;;;;;10.93;8.40;;;5.10;76.90;3.40;98217.00;;;;4956970;28;20230;-84
2023/12/18 00:12:36;;;;;;;9.70;8.63;;;5.20;76.90;3.40;98216.00;;;;4960106;28;20310;-83
2023/12/18 00:15:03;;;;;;;10.33;9.00;;;4.10;76.10;3.40;98214.00;;;;4961773;28;20219;-83
2023/12/18 00:17:30;;;;;;;11.53;9.00;;;5.20;76.60;3.40;98214.00;;;;4954871;28;20204;-84
2023/12/18 00:19:58;;;;;;;11.37;9.13;;;5.20;76.40;3.30;98214.00;;;;4956814;28;20196;-83
2023/12/18 00:22:25;;;;;;;11.23;9.00;;;5.20;76.20;3.40;98206.00;;;;4960314;28;20446;-83
2023/12/18 00:24:53;;;;;;;11.63;8.73;;;5.20;76.20;3.40;98207.00;;;;4953381;28;20200;-83
2023/12/18 00:27:20;;;;;;;10.23;7.87;;;5.10;76.10;3.30;98207.00;;;;4956788;28;20246;-84
2023/12/18 00:29:47;;;;;;;10.03;7.73;;;5.10;76.10;3.30;98205.00;;;;4958845;28;20200;-84
2023/12/18 00:32:14;;;;;;;9.47;7.87;;;5.10;76.10;3.30;98199.00;;;;4963179;28;20662;-84
2023/12/18 00:34:41;;;;;;;8.87;7.57;;;5.10;76.10;3.30;98205.00;;;;4961715;28;20209;-84
2023/12/18 00:37:08;;;;;;;9.67;7.73;;;5.10;76.20;3.30;98204.00;;;;4964360;28;20199;-84
2023/12/18 00:39:36;;;;;;;12.00;7.93;;;5.10;76.30;3.30;98204.00;;;;4953456;28;20226;-83
2023/12/18 00:42:05;;;;;;;9.63;8.03;;;5.10;76.30;3.30;98202.00;;;;4955237;28;20315;-84
2023/12/18 00:44:32;;;;;;;8.27;7.43;;;5.10;76.10;3.30;98200.00;;;;4962430;28;20294;-84
2023/12/18 00:46:59;;;;;;;10.10;7.60;;;5.10;75.90;3.20;98199.00;;;;4964062;28;20286;-85
2023/12/18 00:49:27;;;;;;;9.33;7.77;;;5.10;75.80;3.20;98202.00;;;;4954834;28;20199;-85
2023/12/18 00:51:55;;;;;;;9.57;7.43;;;5.10;75.80;3.20;98204.00;;;;4967536;28;20203;-84
2023/12/18 00:54:22;;;;;;;9.07;7.30;;;5.10;75.90;3.20;98210.00;;;;4958681;28;20202;-84
2023/12/18 00:56:49;;;;;;;8.97;7.00;;;5.00;75.90;3.20;98213.00;;;;4964359;28;20310;-82
2023/12/18 00:59:17;;;;;;;7.83;6.53;;;5.00;76.20;3.20;98210.00;;;;4962402;28;20489;-85
2023/12/18 01:01:45;;;;;;;8.77;7.10;;;5.00;76.20;3.20;98204.00;;;;4964913;28;20317;-83
2023/12/18 01:04:12;;;;;;;8.13;6.87;;;5.00;76.30;3.20;98202.00;;;;4959507;28;20291;-84
2023/12/18 01:06:39;;;;;;;8.73;6.50;;;5.00;76.40;3.20;98201.00;;;;4957197;28;20223;-84
2023/12/18 01:09:06;;;;;;;8.87;6.77;;;5.00;76.20;3.20;98204.00;;;;4956634;28;20294;-83
2023/12/18 01:11:33;;;;;;;7.43;6.67;;;5.00;76.30;3.20;98202.00;;;;4960293;28;20227;-85
2023/12/18 01:14:00;;;;;;;7.90;7.10;;;5.00;76.40;3.20;98204.00;;;;4964623;28;20282;-85
2023/12/18 01:16:28;;;;;;;8.50;6.50;;;5.00;76.30;3.20;98204.00;;;;4953556;28;20698;-85
2023/12/18 01:18:55;;;;;;;6.73;6.03;;;5.00;76.20;3.20;98204.00;;;;4953764;28;20582;-84
2023/12/18 01:21:23;;;;;;;8.23;6.50;;;5.00;77.00;3.20;98202.00;;;;4954608;28;20226;-84
2023/12/18 01:23:50;;;;;;;7.50;6.70;;;5.00;76.20;3.20;98200.00;;;;4959847;28;20263;-84
2023/12/18 01:26:17;;;;;;;7.83;6.57;;;5.00;76.00;3.20;98204.00;;;;4956198;28;20303;-84
2023/12/18 01:28:44;;;;;;;10.33;6.47;;;5.00;76.00;3.20;98202.00;;;;4961006;28;20712;-84
2023/12/18 01:31:22;;;;;;;8.37;6.50;;;5.00;76.10;3.20;98193.00;;;;4952299;28;20234;-82
2023/12/18 01:33:52;;;;;;;7.63;6.60;;;5.00;76.00;3.20;98188.00;;;;4954546;28;20588;-84
2023/12/18 01:36:19;;;;;;;9.07;7.40;;;5.00;76.00;3.20;98196.00;;;;4958405;28;20769;-84
2023/12/18 01:38:47;;;;;;;8.47;7.07;;;5.00;75.90;3.10;98187.00;;;;4958732;28;20204;-84
2023/12/18 01:41:14;;;;;;;8.27;6.83;;;4.90;75.70;3.10;98192.00;;;;4961173;28;20200;-83
2023/12/18 01:43:41;;;;;;;11.07;7.07;;;5.00;75.80;3.10;98193.00;;;;4964010;28;20625;-83
2023/12/18 01:46:09;;;;;;;8.00;6.77;;;4.90;75.90;3.10;98182.00;;;;4957198;28;20350;-83
2023/12/18 01:48:36;;;;;;;7.53;6.43;;;4.90;75.80;3.10;98169.00;;;;4961500;28;20285;-83
2023/12/18 01:51:06;;;;;;;7.20;6.40;;;4.90;76.50;3.10;98175.00;;;;4969157;28;20299;-84
2023/12/18 01:53:39;;;;;;;7.30;6.60;;;4.90;75.80;3.10;98164.00;;;;4961199;28;20930;-84
2023/12/18 01:56:07;;;;;;;8.20;7.00;;;4.90;75.90;3.10;98170.00;;;;4962126;28;20253;-83
2023/12/18 01:58:35;;;;;;;7.77;6.97;;;4.90;75.90;3.00;98156.00;;;;4955867;28;20307;-83
2023/12/18 02:01:03;;;;;;;6.93;6.30;;;4.90;75.80;3.00;98163.00;;;;4960587;28;20247;-85
2023/12/18 02:03:31;;;;;;;7.70;6.90;;;4.90;75.80;3.00;98156.00;;;;4956321;28;20220;-84
2023/12/18 02:05:59;;;;;;;7.57;6.53;;;4.90;75.90;3.00;98158.00;;;;4960293;28;20212;-84
2023/12/18 02:08:29;;;;;;;8.37;6.53;;;4.90;76.00;3.00;98164.00;;;;4956136;28;20304;-84
2023/12/18 02:10:58;;;;;;;7.57;6.17;;;4.90;76.20;3.00;98161.00;;;;4954464;28;20273;-84
2023/12/18 02:13:25;;;;;;;9.40;6.40;;;4.80;76.20;3.00;98159.00;;;;4964001;28;20215;-84
2023/12/18 02:15:52;;;;;;;7.90;6.40;;;4.80;76.20;3.00;98152.00;;;;4960079;28;20311;-85
2023/12/18 02:18:19;;;;;;;7.33;6.63;;;4.80;76.10;3.00;98151.00;;;;4958900;28;20271;-84
2023/12/18 02:20:46;;;;;;;7.00;6.30;;;4.80;76.10;3.00;98144.00;;;;4962469;28;20204;-86
2023/12/18 02:23:15;;;;;;;7.33;6.57;;;4.80;76.10;3.00;98142.00;;;;4964163;28;20330;-83
2023/12/18 02:25:42;;;;;;;8.00;6.67;;;4.80;76.10;3.00;98138.00;;;;4965495;28;20640;-85
2023/12/18 02:28:12;;;;;;;7.20;6.50;;;4.80;76.40;3.00;98140.00;;;;4967760;28;20643;-85
2023/12/18 02:30:39;;;;;;;8.47;6.73;;;4.80;76.40;3.00;98144.00;;;;4964703;28;20204;-84
2023/12/18 02:33:06;;;;;;;8.60;6.97;;;4.90;76.60;3.10;98138.00;;;;4968627;28;20400;-85
2023/12/18 02:35:33;;;;;;;7.70;6.90;;;4.90;76.60;3.10;98134.00;;;;4956826;28;20308;-84
2023/12/18 02:38:00;;;;;;;9.83;7.10;;;4.90;76.50;3.10;98130.00;;;;4955670;28;20291;-85
2023/12/18 02:40:29;;;;;;;8.07;6.70;;;4.90;76.50;3.10;98126.00;;;;4961320;28;20360;-85
2023/12/18 02:42:56;;;;;;;8.27;6.97;;;4.90;76.50;3.10;98130.00;;;;4962840;28;20224;-84
2023/12/18 02:45:23;;;;;;;9.30;6.87;;;4.90;76.60;3.10;98133.00;;;;4967693;28;20228;-85
2023/12/18 02:47:50;;;;;;;9.07;7.10;;;5.00;76.80;3.10;98134.00;;;;4962995;28;20648;-84
2023/12/18 02:50:18;;;;;;;10.03;7.23;;;4.90;76.60;3.10;98132.00;;;;4968368;28;20661;-85
2023/12/18 02:52:45;;;;;;;7.50;6.67;;;4.90;76.50;3.10;98130.00;;;;4962901;28;20200;-85
2023/12/18 02:55:13;;;;;;;9.17;7.37;;;4.90;76.50;3.10;98127.00;;;;4962983;28;20311;-84
2023/12/18 02:57:41;;;;;;;7.67;6.70;;;4.90;76.40;3.10;98117.00;;;;4967036;28;20690;-86
2023/12/18 03:00:09;;;;;;;9.20;7.00;;;4.90;76.20;3.10;98109.00;;;;4961847;28;20287;-85
2023/12/18 03:02:38;;;;;;;8.20;7.17;;;4.90;75.90;3.10;98110.00;;;;4965233;28;20220;-82
2023/12/18 03:05:06;;;;;;;10.37;8.00;;;4.90;75.80;3.10;98109.00;;;;4956606;28;20548;-84
2023/12/18 03:07:33;;;;;;;8.47;7.10;;;4.90;75.80;3.00;98106.00;;;;4956375;28;20294;-83
2023/12/18 03:10:00;;;;;;;8.47;7.53;;;4.90;75.70;3.00;98104.00;;;;4963308;28;20196;-84
2023/12/18 03:12:27;;;;;;;8.77;7.17;;;4.90;75.80;3.00;98112.00;;;;4965641;28;20199;-84
2023/12/18 03:14:56;;;;;;;10.13;7.20;;;4.80;75.70;3.00;98097.00;;;;4961101;28;20206;-84
2023/12/18 03:17:23;;;;;;;8.97;7.10;;;4.80;76.00;3.00;98111.00;;;;4955218;28;20287;-84
2023/12/18 03:19:50;;;;;;;7.57;6.73;;;4.80;76.10;3.00;98106.00;;;;4960480;28;20204;-84
2023/12/18 03:22:17;;;;;;;9.83;7.23;;;4.80;76.20;3.00;98102.00;;;;4958274;28;20291;-85
2023/12/18 03:24:44;;;;;;;9.17;6.77;;;4.90;76.30;3.00;98108.00;;;;4963352;28;20211;-84
2023/12/18 03:27:11;;;;;;;7.50;6.70;;;4.80;76.10;2.90;98102.00;;;;4965274;28;20282;-84
2023/12/18 03:29:38;;;;;;;7.07;6.33;;;4.80;76.00;3.00;98103.00;;;;4963118;28;20206;-83
2023/12/18 03:32:07;;;;;;;7.37;6.43;;;4.80;76.00;2.90;98100.00;;;;4962528;28;20204;-84
2023/12/18 03:34:34;;;;;;;7.20;6.50;;;4.80;76.10;2.90;98106.00;;;;4970717;28;20204;-85
2023/12/18 03:37:01;;;;;;;7.43;6.73;;;4.80;76.20;2.90;98106.00;;;;4959576;28;20636;-85
2023/12/18 03:39:28;;;;;;;7.43;6.63;;;4.80;76.20;2.90;98104.00;;;;4956323;28;20292;-85
2023/12/18 03:41:57;;;;;;;7.47;6.77;;;4.80;76.10;2.90;98107.00;;;;4954931;28;20236;-84
2023/12/18 03:44:24;;;;;;;7.27;6.53;;;4.80;75.90;2.90;98113.00;;;;4964064;28;20199;-84
2023/12/18 03:46:51;;;;;;;6.67;6.07;;;4.70;75.90;2.90;98095.00;;;;4965016;28;20306;-84
2023/12/18 03:49:19;;;;;;;7.57;6.40;;;4.70;75.90;2.90;98103.00;;;;4964658;28;20741;-84
2023/12/18 03:51:46;;;;;;;7.27;6.53;;;4.80;76.00;2.90;98101.00;;;;4963261;28;20287;-84
2023/12/18 03:54:13;;;;;;;9.40;7.00;;;4.70;76.00;2.90;98115.00;;;;4969358;28;20207;-82
2023/12/18 03:56:40;;;;;;;7.40;6.60;;;4.70;76.10;2.90;98115.00;;;;4952972;28;20602;-84
2023/12/18 03:59:07;;;;;;;7.23;6.50;;;4.70;76.10;2.90;98102.00;;;;4956414;28;20288;-81
2023/12/18 04:01:35;;;;;;;8.07;6.60;;;4.70;75.90;2.90;98106.00;;;;4957461;28;20403;-84
2023/12/18 04:04:02;;;;;;;7.83;6.73;;;5.70;76.50;2.90;98102.00;;;;4965453;28;20319;-84
2023/12/18 04:06:29;;;;;;;7.73;6.80;;;4.70;75.90;2.90;98104.00;;;;4961234;28;20223;-83
2023/12/18 04:08:56;;;;;;;7.43;6.63;;;4.70;75.70;2.90;98101.00;;;;4964038;28;20285;-84
2023/12/18 04:11:22;;;;;;;6.80;6.20;;;5.50;76.10;2.90;98103.00;;;;4958525;28;20657;-84
2023/12/18 04:13:50;;;;;;;7.40;6.70;;;4.70;75.70;2.90;98107.00;;;;4965484;28;20700;-85
2023/12/18 04:16:17;;;;;;;6.93;6.23;;;4.70;75.80;2.80;98092.00;;;;4954642;28;20232;-85
2023/12/18 04:18:44;;;;;;;8.20;6.50;;;4.70;75.60;2.80;98093.00;;;;4962759;28;20230;-84
2023/12/18 04:21:11;;;;;;;8.17;6.40;;;4.70;75.40;2.80;98098.00;;;;4958577;28;20283;-84
2023/12/18 04:23:40;;;;;;;8.10;6.67;;;4.70;75.60;2.80;98099.00;;;;4962222;28;20322;-84
2023/12/18 04:26:09;;;;;;;8.37;7.07;;;4.60;75.70;2.80;98101.00;;;;4962380;28;20224;-84
2023/12/18 04:28:36;;;;;;;9.73;7.10;;;4.60;75.70;2.80;98102.00;;;;4956833;28;20287;-84
2023/12/18 04:31:04;;;;;;;7.47;6.67;;;4.60;75.60;2.80;98094.00;;;;4962174;28;20291;-84
2023/12/18 04:33:31;;;;;;;8.10;7.10;;;4.60;75.60;2.80;98096.00;;;;4953552;28;20211;-84
2023/12/18 04:36:00;;;;;;;9.47;6.87;;;4.70;75.60;2.70;98092.00;;;;4954608;28;20219;-84
2023/12/18 04:38:28;;;;;;;7.97;6.57;;;4.60;76.20;2.70;98089.00;;;;4956623;28;20204;-84
2023/12/18 04:40:58;;;;;;;8.30;6.67;;;4.60;75.40;2.70;98088.00;;;;4971615;28;20207;-84
2023/12/18 04:43:25;;;;;;;10.00;6.77;;;4.60;75.50;2.70;98089.00;;;;4964475;28;20263;-85
2023/12/18 04:45:52;;;;;;;7.87;6.80;;;4.60;75.60;2.70;98094.00;;;;4958934;28;20318;-84
2023/12/18 04:48:19;;;;;;;7.37;6.33;;;4.50;75.60;2.70;98097.00;;;;4953852;28;20234;-84
2023/12/18 04:50:46;;;;;;;7.50;6.80;;;4.50;75.70;2.70;98092.00;;;;4956389;28;20195;-83
2023/12/18 04:53:13;;;;;;;8.03;6.40;;;4.50;76.00;2.70;98098.00;;;;4955531;28;20266;-83
2023/12/18 04:55:40;;;;;;;7.20;6.50;;;4.50;76.10;2.70;98086.00;;;;4970996;28;20215;-84
2023/12/18 04:58:09;;;;;;;7.30;6.60;;;4.70;76.10;2.60;98080.00;;;;4959989;28;20507;-85
2023/12/18 05:00:36;;;;;;;7.47;6.60;;;4.50;75.70;2.60;98075.00;;;;4959250;28;20749;-83
2023/12/18 05:03:03;;;;;;;7.37;6.67;;;4.50;75.60;2.60;98078.00;;;;4956100;28;20302;-84
2023/12/18 05:05:30;;;;;;;7.17;6.00;;;4.50;75.50;2.60;98080.00;;;;4958671;28;20319;-84
2023/12/18 05:07:57;;;;;;;9.27;6.50;;;4.50;75.30;2.60;98066.00;;;;4957876;28;20650;-84
2023/12/18 05:10:24;;;;;;;8.00;6.70;;;4.50;75.20;2.60;98068.00;;;;4960058;28;20291;-84
2023/12/18 05:12:51;;;;;;;7.60;6.47;;;4.50;75.20;2.60;98067.00;;;;4962585;28;20563;-84
2023/12/18 05:15:20;;;;;;;8.77;6.33;;;4.50;75.50;2.60;98079.00;;;;4969200;28;20242;-84
2023/12/18 05:17:47;;;;;;;7.97;6.43;;;4.40;75.60;2.60;98068.00;;;;4962606;28;20200;-84
2023/12/18 05:20:15;;;;;;;9.10;6.87;;;4.40;75.40;2.50;98078.00;;;;4961136;28;20681;-85
2023/12/18 05:22:42;;;;;;;6.90;6.17;;;4.40;75.20;2.50;98072.00;;;;4963089;28;20319;-85
2023/12/18 05:25:10;;;;;;;12.53;7.23;;;4.40;75.20;2.50;98067.00;;;;4962017;28;20302;-83
2023/12/18 05:27:37;;;;;;;8.57;6.43;;;4.40;75.10;2.50;98064.00;;;;4964723;28;20674;-83
2023/12/18 05:30:06;;;;;;;8.83;7.13;;;4.40;75.00;2.50;98072.00;;;;4954869;28;20283;-84
2023/12/18 05:32:34;;;;;;;8.67;6.60;;;4.30;75.00;2.50;98068.00;;;;4954606;28;20215;-84
2023/12/18 05:35:01;;;;;;;9.73;7.07;;;4.30;75.30;2.50;98071.00;;;;4953705;28;20226;-85
2023/12/18 05:37:29;;;;;;;9.67;7.63;;;4.30;75.50;2.50;98076.00;;;;4954075;28;20203;-84
2023/12/18 05:39:57;;;;;;;7.97;6.87;;;4.30;75.60;2.50;98072.00;;;;4959271;28;20852;-84
2023/12/18 05:42:24;;;;;;;9.77;7.77;;;4.30;75.60;2.50;98080.00;;;;4964851;28;20250;-84
2023/12/18 05:44:51;;;;;;;10.97;7.40;;;4.30;75.70;2.50;98082.00;;;;4965750;28;20295;-83
2023/12/18 05:47:18;;;;;;;12.03;7.10;;;4.30;75.80;2.50;98085.00;;;;4958588;28;20567;-84
2023/12/18 05:49:46;;;;;;;8.40;7.37;;;4.30;75.80;2.50;98083.00;;;;4955585;28;20654;-84
2023/12/18 05:52:14;;;;;;;8.67;7.00;;;4.30;75.60;2.50;98083.00;;;;4955845;28;20640;-82
2023/12/18 05:54:41;;;;;;;8.00;6.77;;;4.30;75.40;2.50;98084.00;;;;4955117;28;20219;-84
2023/12/18 05:57:08;;;;;;;8.70;6.80;;;4.40;75.30;2.50;98082.00;;;;4960821;28;20206;-84
2023/12/18 05:59:35;;;;;;;8.83;7.23;;;4.40;75.10;2.40;98083.00;;;;4971707;28;20761;-85
2023/12/18 06:02:02;;;;;;;9.50;7.37;;;4.30;75.00;2.40;98082.00;;;;4971823;28;20199;-85
2023/12/18 06:04:29;;;;;;;8.27;7.30;;;4.30;75.00;2.40;98073.00;;;;4959631;28;20216;-84
2023/12/18 06:06:58;;;;;;;8.13;7.30;;;4.30;75.00;2.40;98073.00;;;;4956576;28;20308;-84
2023/12/18 06:09:25;;;;;;;9.17;7.83;;;4.30;75.20;2.40;98072.00;;;;4961239;28;20207;-84
2023/12/18 06:11:52;;;;;;;10.23;6.83;;;4.30;75.50;2.40;98075.00;;;;4962744;28;20271;-84
2023/12/18 06:14:19;;;;;;;8.17;7.30;;;4.20;75.60;2.40;98080.00;;;;4964992;28;20291;-84
2023/12/18 06:16:46;;;;;;;9.20;7.90;;;4.30;75.80;2.40;98074.00;;;;4956724;28;20215;-85
2023/12/18 06:19:13;;;;;;;9.70;7.67;;;4.20;75.50;2.40;98081.00;;;;4956744;28;20206;-81
2023/12/18 06:21:42;;;;;;;10.20;7.97;;;4.30;75.30;2.40;98078.00;;;;4963769;28;20655;-83
2023/12/18 06:24:10;;;;;;;10.00;7.73;;;4.30;75.90;2.40;98072.00;;;;4962057;28;20306;-85
2023/12/18 06:26:37;;;;;;;8.47;7.50;;;4.30;75.10;2.40;98070.00;;;;4963274;28;20306;-82
2023/12/18 06:29:04;;;;;;;9.37;8.10;;;4.30;75.00;2.30;98074.00;;;;4967103;28;20657;-84
2023/12/18 06:31:31;;;;;;;11.80;7.97;;;4.20;75.00;2.30;98069.00;;;;4957179;28;20296;-84
2023/12/18 06:33:58;;;;;;;8.97;7.63;;;4.20;74.90;2.30;98072.00;;;;4956527;28;20526;-84
2023/12/18 06:36:25;;;;;;;10.70;8.53;;;4.20;74.90;2.30;98076.00;;;;4960646;28;20310;-84
2023/12/18 06:38:52;;;;;;;9.93;8.03;;;4.20;74.90;2.30;98071.00;;;;4956295;28;20291;-85
2023/12/18 06:41:21;;;;;;;9.40;7.73;;;4.20;75.00;2.30;98076.00;;;;4963435;28;20286;-84
2023/12/18 06:43:49;;;;;;;11.07;7.90;;;4.20;75.10;2.30;98077.00;;;;4959853;28;20238;-85
2023/12/18 06:46:16;;;;;;;10.63;8.70;;;4.10;75.20;2.30;98082.00;;;;4956745;28;20323;-85
2023/12/18 06:48:43;;;;;;;9.17;8.23;;;4.10;75.30;2.30;98082.00;;;;4959510;28;20222;-85
2023/12/18 06:51:10;;;;;;;8.77;7.43;;;4.10;75.50;2.30;98079.00;;;;4954135;28;20602;-85
2023/12/18 06:53:37;;;;;;;8.27;7.27;;;4.20;75.70;2.30;98088.00;;;;4959144;28;20214;-84
2023/12/18 06:56:05;;;;;;;10.53;7.93;;;4.20;75.80;2.30;98079.00;;;;4954023;28;20222;-85
2023/12/18 06:58:34;;;;;;;9.20;7.37;;;4.20;75.80;2.30;98083.00;;;;4961599;28;20204;-85
2023/12/18 07:01:01;;;;;;;8.77;7.20;;;4.20;75.50;2.30;98082.00;;;;4967896;28;20623;-85
2023/12/18 07:03:28;;;;;;;9.97;7.30;;;4.20;75.50;2.30;98087.00;;;;4964453;28;20234;-85
2023/12/18 07:05:55;;;;;;;9.27;6.97;;;4.20;75.50;2.30;98078.00;;;;4958880;28;20223;-85
2023/12/18 07:08:22;;;;;;;11.43;7.53;;;4.20;75.40;2.30;98077.00;;;;4963222;28;20299;-85
2023/12/18 07:10:49;;;;;;;10.00;7.23;;;4.20;75.30;2.30;98078.00;;;;4966498;28;20446;-85
2023/12/18 07:13:16;;;;;;;9.43;7.87;;;4.20;75.10;2.30;98082.00;;;;4958638;28;20689;-85
2023/12/18 07:15:45;;;;;;;8.87;7.83;;;4.20;75.30;2.30;98082.00;;;;4962635;28;20319;-85
2023/12/18 07:18:13;;;;;;;9.40;7.33;;;4.10;75.30;2.30;98079.00;;;;4955855;28;20538;-85
2023/12/18 07:20:41;;;;;;;8.63;7.40;;;4.20;75.50;2.30;98086.00;;;;4958107;28;20201;-85
2023/12/18 07:23:08;;;;;;;10.63;7.20;;;4.20;75.50;2.30;98080.00;;;;4957607;28;20287;-85
2023/12/18 07:25:35;;;;;;;9.17;7.33;;;4.10;75.40;2.30;98085.00;;;;4963441;28;20303;-86
2023/12/18 07:28:04;;;;;;;10.37;7.40;;;4.10;75.40;2.30;98094.00;;;;4968815;28;20202;-85
2023/12/18 07:30:31;;;;;;;10.10;8.10;;;4.20;75.70;2.30;98095.00;;;;4958581;28;20208;-85
2023/12/18 07:33:00;;;;;;;10.33;7.70;;;4.40;76.00;2.40;98092.00;;;;4969064;28;20291;-85
2023/12/18 07:35:27;;;;;;;11.27;7.83;;;4.20;76.00;2.40;98098.00;;;;4966628;28;20250;-86
2023/12/18 07:37:54;;;;;;;9.87;7.80;;;4.30;76.10;2.50;98100.00;;;;4965492;28;20210;-86
2023/12/18 07:40:22;;;;;;;8.27;7.47;;;4.30;76.10;2.50;98094.00;;;;4953909;28;20522;-86
2023/12/18 07:42:49;;;;;;;9.03;8.03;;;4.40;76.20;2.50;98095.00;;;;4964008;28;20679;-85
2023/12/18 07:45:16;;;;;;;11.07;8.10;;;4.40;76.00;2.50;98101.00;;;;4960756;28;20244;-84
2023/12/18 07:47:43;;;;;;;8.10;7.30;;;4.50;75.80;2.60;98108.00;;;;4963062;28;20522;-86
2023/12/18 07:50:12;;;;;;;10.57;8.33;;;4.50;75.70;2.60;98102.00;;;;4960962;28;20311;-84
2023/12/18 07:52:39;;;;;;;10.50;7.97;;;4.50;75.70;2.60;98100.00;;;;4961090;28;20223;-85
2023/12/18 07:55:08;;;;;;;8.53;7.63;;;4.50;75.60;2.60;98117.00;;;;4960515;28;20263;-86
2023/12/18 07:57:35;;;;;;;9.47;7.73;;;4.60;75.80;2.70;98103.00;;;;4948530;28;20209;-85
2023/12/18 08:00:04;;;;;;;8.10;7.30;;;4.60;75.80;2.70;98095.00;;;;4960613;28;20881;-84
2023/12/18 08:02:31;;;;;;;8.73;7.47;;;4.60;75.90;2.70;98105.00;;;;4964029;28;20211;-85
2023/12/18 08:04:58;;;;;;;9.03;7.43;;;4.70;75.90;2.70;98100.00;;;;4963542;28;20255;-85
2023/12/18 08:07:25;;;;;;;9.97;7.97;;;4.70;75.80;2.70;98101.00;;;;4958728;28;20204;-85
2023/12/18 08:09:52;;;;;;;11.17;7.47;;;4.70;75.50;2.70;98094.00;;;;4960380;28;20203;-86
2023/12/18 08:12:19;;;;;;;9.07;7.50;;;4.70;75.50;2.80;98093.00;;;;4961847;28;20712;-86
2023/12/18 08:14:46;;;;;;;11.97;7.90;;;4.70;76.40;2.80;98093.00;;;;4963775;28;20302;-86
2023/12/18 08:17:15;;;;;;;8.93;6.90;;;4.80;75.90;2.80;98093.00;;;;4964823;28;20287;-85
2023/12/18 08:19:47;;;;;;;8.83;7.07;;;4.80;76.00;2.90;98091.00;;;;4953850;28;20239;-85
2023/12/18 08:22:15;;;;;;;10.97;8.07;;;4.80;75.80;2.90;98090.00;;;;4962663;28;20669;-85
2023/12/18 08:24:45;;;;;;;8.40;7.47;;;4.80;75.80;2.90;98090.00;;;;4964855;28;20318;-88
2023/12/18 08:27:14;;;;;;;9.03;7.77;;;4.90;75.90;2.90;98093.00;;;;4957578;28;20297;-87
2023/12/18 08:29:42;;;;;;;10.40;7.90;;;4.90;76.20;3.00;98092.00;;;;4969761;28;20658;-86
2023/12/18 08:32:10;;;;;;;8.77;7.93;;;4.90;76.30;3.00;98086.00;;;;4963603;28;20253;-85
2023/12/18 08:34:38;;;;;;;10.27;7.73;;;4.90;76.50;3.10;98096.00;;;;4963684;28;20729;-87
2023/12/18 08:37:06;;;;;;;9.07;8.00;;;5.00;76.60;3.20;98092.00;;;;4960841;28;20650;-86
2023/12/18 08:39:34;;;;;;;9.87;8.17;;;5.10;76.80;3.20;98093.00;;;;4963701;28;20216;-85
2023/12/18 08:42:04;;;;;;;8.83;7.93;;;5.10;76.80;3.30;98088.00;;;;4960738;28;20640;-86
2023/12/18 08:44:32;;;;;;;9.87;8.40;;;5.10;76.90;3.30;98082.00;;;;4965099;28;20235;-87
2023/12/18 08:47:07;;;;;;;10.27;8.13;;;5.20;77.00;3.40;98096.00;;;;4959157;28;20310;-88
2023/12/18 08:50:06;;;;;;;13.07;8.67;;;5.20;77.00;3.50;98068.00;;;;4965546;28;20210;-89
2023/12/18 08:53:14;;;;;;;9.27;8.27;;;6.50;78.40;3.60;98059.00;;;;4954885;28;20218;-89
2023/12/18 08:55:52;;;;;;;8.60;7.70;;;5.30;77.90;3.70;98094.00;;;;4931567;23;20223;-82
2023/12/18 08:59:13;;;;;;;9.07;7.93;;;5.50;78.40;3.80;98095.00;;;;4979007;28;20217;-82
2023/12/18 09:01:53;;;;;;;10.00;8.20;;;5.50;78.50;3.90;98083.00;;;;4972052;28;20203;-82
2023/12/18 09:04:37;;;;;;;8.67;6.83;;;5.60;78.80;4.00;98091.00;;;;4981725;28;20230;-83
2023/12/18 09:07:07;;;;;;;8.03;6.77;;;5.70;78.70;4.10;98075.00;;;;4975351;28;20231;-83
2023/12/18 09:09:39;;;;;;;8.33;7.07;;;5.80;78.90;4.10;98081.00;;;;4980889;28;20682;-83
2023/12/18 09:12:08;;;;;;;8.63;6.27;;;5.90;78.80;4.20;98112.00;;;;4988360;28;20195;-83
2023/12/18 09:14:37;;;;;;;9.17;6.73;;;6.00;78.70;4.30;98109.00;;;;4977477;28;20247;-83
2023/12/18 09:17:05;;;;;;;9.67;6.80;;;6.10;78.70;4.30;98103.00;;;;4982968;28;20237;-84
2023/12/18 09:19:32;;;;;;;8.03;6.47;;;6.10;78.70;4.40;98105.00;;;;4979614;28;20226;-83
2023/12/18 09:21:59;;;;;;;7.57;6.80;;;6.20;78.80;4.40;98109.00;;;;4980063;28;20226;-84
2023/12/18 09:24:26;;;;;;;9.67;6.67;;;6.20;78.80;4.50;98109.00;;;;4981777;28;20226;-83
2023/12/18 09:26:54;;;;;;;7.73;6.10;;;6.20;78.80;4.50;98108.00;;;;4974863;28;20203;-83
2023/12/18 09:29:22;;;;;;;8.13;6.63;;;6.30;79.70;4.60;98107.00;;;;4984603;28;20230;-82
2023/12/18 09:31:51;;;;;;;7.37;6.57;;;6.40;79.10;4.70;98107.00;;;;4979662;28;20702;-81
2023/12/18 09:34:19;;;;;;;7.30;6.43;;;6.40;79.20;4.80;98116.00;;;;4985216;28;20202;-82
2023/12/18 09:36:46;;;;;;;6.30;5.70;;;6.50;79.50;4.80;98119.00;;;;4976060;28;20207;-82
2023/12/18 09:39:15;;;;;;;6.47;5.87;;;6.50;79.80;5.00;98118.00;;;;4981335;28;20234;-83
2023/12/18 09:41:45;;;;;;;7.03;6.33;;;6.60;80.40;5.20;98117.00;;;;4982297;28;20290;-83
2023/12/18 09:44:13;;;;;;;7.33;6.07;;;6.80;81.10;5.40;98130.00;;;;4982041;28;20222;-82
2023/12/18 09:46:40;;;;;;;8.63;5.83;;;6.90;81.70;5.60;98132.00;;;;4984784;28;20298;-82
2023/12/18 09:49:09;;;;;;;6.13;5.47;;;7.10;82.40;5.80;98123.00;;;;4987178;28;20195;-82
2023/12/18 09:51:41;;;;;;;6.07;5.47;;;7.40;83.00;6.10;98117.00;;;;4988398;28;20205;-82
2023/12/18 09:54:09;;;;;;;7.93;5.57;;;7.60;83.20;6.40;98117.00;;;;4973791;28;20655;-82
2023/12/18 09:56:38;;;;;;;5.93;5.33;;;7.80;83.80;6.70;98117.00;;;;4980438;28;20666;-83
2023/12/18 09:59:06;;;;;;;5.60;5.10;;;8.20;84.10;7.00;98123.00;;;;4982341;28;20226;-83
2023/12/18 10:01:36;;;;;;;5.40;4.90;;;8.40;84.20;7.30;98116.00;;;;4990079;28;20294;-83
2023/12/18 10:04:03;;;;;;;4.83;4.43;;;8.80;84.30;7.60;98122.00;;;;4971922;28;20199;-83
2023/12/18 10:06:32;;;;;;;5.17;4.77;;;9.10;85.00;7.90;98128.00;;;;4982155;28;20258;-82
2023/12/18 10:09:03;;;;;;;5.60;4.97;;;9.40;84.40;8.20;98133.00;;;;4981620;28;20291;-82
2023/12/18 10:11:30;;;;;;;5.60;5.00;;;9.60;83.30;8.40;98131.00;;;;4975050;28;20199;-83
2023/12/18 10:13:58;;;;;;;5.17;4.70;;;9.90;82.80;8.70;98132.00;;;;4980762;28;20298;-82
2023/12/18 10:16:25;;;;;;;5.97;4.80;;;10.20;82.20;8.90;98122.00;;;;4988297;28;20219;-83
2023/12/18 10:18:53;;;;;;;4.90;4.47;;;10.40;81.70;9.10;98117.00;;;;4983828;28;20250;-82
2023/12/18 10:21:24;;;;;;;5.87;4.10;;;10.60;81.20;9.30;98124.00;;;;4988361;28;20199;-83
2023/12/18 10:23:54;;;;;;;3.43;3.13;;;10.70;80.40;9.50;98115.00;;;;4982155;28;20660;-83
2023/12/18 10:26:21;;;;;;;3.63;3.30;;;10.90;79.70;9.60;98110.00;;;;4984780;28;20254;-83
2023/12/18 10:28:52;;;;;;;4.37;3.30;;;11.10;79.60;9.80;98111.00;;;;4980234;28;20207;-83
2023/12/18 10:31:20;;;;;;;3.67;3.00;;;11.20;78.80;9.90;98099.00;;;;4982589;28;20195;-83
2023/12/18 10:33:47;;;;;;;3.30;3.00;;;11.30;78.30;9.90;98093.00;;;;4981033;28;20707;-82
2023/12/18 10:36:17;;;;;;;3.50;3.10;;;11.40;77.30;10.00;98090.00;;;;4987617;28;20321;-83
2023/12/18 10:38:49;;;;;;;2.50;2.30;;;11.50;76.40;10.00;98093.00;;;;4980438;28;20655;-83
2023/12/18 10:41:21;;;;;;;2.93;2.73;;;11.50;75.30;9.90;98086.00;;;;4983061;28;20195;-83
2023/12/18 10:43:50;;;;;;;2.30;2.20;;;11.50;74.90;9.90;98080.00;;;;4976993;28;20200;-83
2023/12/18 10:46:18;;;;;;;2.03;1.93;;;11.40;75.40;9.80;98078.00;;;;4974635;28;20254;-83
2023/12/18 10:48:49;;;;;;;2.60;2.40;;;11.30;74.40;9.80;98074.00;;;;4976276;28;20227;-83
2023/12/18 10:51:21;;;;;;;2.80;2.10;;;11.30;73.90;9.70;98066.00;;;;4988484;28;20201;-82
2023/12/18 10:53:50;;;;;;;3.50;2.13;;;11.20;73.50;9.60;98059.00;;;;4977810;28;20678;-83
2023/12/18 10:56:21;;;;;;;3.27;1.70;;;11.20;73.50;9.60;98066.00;;;;4978605;28;20313;-83
2023/12/18 10:58:51;;;;;;;2.50;2.30;;;11.10;73.50;9.50;98055.00;;;;4980922;28;20265;-82
2023/12/18 11:01:20;;;;;;;2.90;2.00;;;11.00;73.50;9.50;98057.00;;;;4980731;28;20209;-82
2023/12/18 11:03:48;;;;;;;2.90;2.47;;;11.00;73.40;9.40;98051.00;;;;4980676;28;20207;-82
2023/12/18 11:06:17;;;;;;;3.10;2.57;;;10.90;73.50;9.40;98043.00;;;;4972245;28;20227;-82
2023/12/18 11:08:44;;;;;;;2.30;2.10;;;10.90;73.60;9.40;98048.00;;;;4975705;28;20299;-82
2023/12/18 11:11:13;;;;;;;3.37;2.53;;;10.90;73.70;9.40;98052.00;;;;4977272;28;20202;-82